createdAt,value
2018-12-11T00:00:59.223Z,6.90
2018-12-11T00:03:33.189Z,7.60
2018-12-11T00:06:07.109Z,8.43
2018-12-11T00:08:41.139Z,7.70
2018-12-11T00:11:15.125Z,7.00
2018-12-11T00:13:49.055Z,7.93
2018-12-11T00:16:23.161Z,8.60
2018-12-11T00:18:57.424Z,7.87
2018-12-11T00:21:31.452Z,8.17
2018-12-11T00:24:05.468Z,7.37
2018-12-11T00:26:39.615Z,6.97
2018-12-11T00:29:13.412Z,8.70
2018-12-11T00:31:47.316Z,8.03
2018-12-11T00:34:21.163Z,6.80
2018-12-11T00:36:55.218Z,7.10
2018-12-11T00:39:29.338Z,7.50
2018-12-11T00:42:03.307Z,6.23
2018-12-11T00:44:37.157Z,7.80
2018-12-11T00:47:11.345Z,7.67
2018-12-11T00:49:45.303Z,6.63
2018-12-11T00:52:19.487Z,8.10
2018-12-11T00:54:53.381Z,6.70
2018-12-11T00:57:27.384Z,7.60
2018-12-11T01:00:01.303Z,6.30
2018-12-11T01:02:35.176Z,5.50
2018-12-11T01:05:09.233Z,6.37
2018-12-11T01:07:43.256Z,5.40
2018-12-11T01:10:17.157Z,5.97
2018-12-11T01:12:51.205Z,5.10
2018-12-11T01:15:25.260Z,6.70
2018-12-11T01:17:59.595Z,4.97
2018-12-11T01:20:33.487Z,6.17
2018-12-11T01:23:07.633Z,7.17
2018-12-11T01:25:41.788Z,6.63
2018-12-11T01:28:15.691Z,6.70
2018-12-11T01:30:49.804Z,6.17
2018-12-11T01:33:23.679Z,5.90
2018-12-11T01:35:57.662Z,5.73
2018-12-11T01:38:31.743Z,5.60
2018-12-11T01:41:05.612Z,4.90
2018-12-11T01:43:40.531Z,6.50
2018-12-11T01:46:14.537Z,5.50
2018-12-11T01:48:48.431Z,6.30
2018-12-11T01:51:22.457Z,6.07
2018-12-11T01:53:56.335Z,5.30
2018-12-11T01:56:31.138Z,5.70
2018-12-11T01:59:05.258Z,6.10
2018-12-11T02:01:39.124Z,5.83
2018-12-11T02:04:13.044Z,6.13
2018-12-11T02:06:46.945Z,5.43
2018-12-11T02:09:20.879Z,5.90
2018-12-11T02:11:54.987Z,5.93
2018-12-11T02:14:28.992Z,4.33
2018-12-11T02:17:03.004Z,4.83
2018-12-11T02:19:37.003Z,4.27
2018-12-11T02:22:10.855Z,4.27
2018-12-11T02:24:44.687Z,5.20
2018-12-11T02:27:18.736Z,4.37
2018-12-11T02:29:52.577Z,4.57
2018-12-11T02:32:26.436Z,4.50
2018-12-11T02:35:00.394Z,5.10
2018-12-11T02:37:34.493Z,5.30
2018-12-11T02:40:08.404Z,3.87
2018-12-11T02:42:42.312Z,4.50
2018-12-11T02:45:16.194Z,4.90
2018-12-11T02:47:50.190Z,4.73
2018-12-11T02:50:24.017Z,3.73
2018-12-11T02:52:57.898Z,4.37
2018-12-11T02:55:31.923Z,3.73
2018-12-11T02:58:05.862Z,3.43
2018-12-11T03:47:18.991Z,3.40
2018-12-11T03:49:53.015Z,3.60
2018-12-11T03:52:26.905Z,3.70
2018-12-11T03:55:00.844Z,3.30
2018-12-11T03:57:34.956Z,3.67
2018-12-11T04:00:09.124Z,2.90
2018-12-11T04:02:43.087Z,3.47
2018-12-11T04:05:17.083Z,3.20
2018-12-11T04:07:51.097Z,3.00
2018-12-11T04:10:25.088Z,2.97
2018-12-11T04:12:59.022Z,2.60
2018-12-11T04:15:33.174Z,3.10
2018-12-11T04:18:07.200Z,3.60
2018-12-11T04:20:41.197Z,2.67
2018-12-11T04:23:15.103Z,3.13
2018-12-11T04:25:49.133Z,3.03
2018-12-11T04:28:23.212Z,2.77
2018-12-11T04:30:57.262Z,3.00
2018-12-11T04:33:31.221Z,3.07
2018-12-11T04:36:05.224Z,3.80
2018-12-11T04:38:39.155Z,3.93
2018-12-11T04:41:13.079Z,3.50
2018-12-11T04:43:47.139Z,2.93
2018-12-11T04:46:21.091Z,5.23
2018-12-11T04:48:55.017Z,3.57
2018-12-11T04:51:28.959Z,3.43
2018-12-11T04:54:02.882Z,3.17
2018-12-11T04:56:36.820Z,2.97
2018-12-11T04:59:10.909Z,2.83
2018-12-11T05:01:45.260Z,3.63
2018-12-11T05:04:19.208Z,3.20
2018-12-11T05:06:53.102Z,3.00
2018-12-11T05:09:27.135Z,2.80
2018-12-11T05:12:01.158Z,3.13
2018-12-11T05:14:35.153Z,3.67
2018-12-11T05:17:09.075Z,4.37
2018-12-11T05:19:43.183Z,3.93
2018-12-11T05:22:17.156Z,4.47
2018-12-11T05:24:51.232Z,2.90
2018-12-11T05:27:25.216Z,4.43
2018-12-11T05:29:59.279Z,4.57
2018-12-11T05:32:33.421Z,4.27
2018-12-11T05:35:07.425Z,3.57
2018-12-11T05:37:41.410Z,3.40
2018-12-11T05:40:15.495Z,3.93
2018-12-11T05:42:49.463Z,3.70
2018-12-11T05:45:23.365Z,4.37
2018-12-11T05:47:57.249Z,3.53
2018-12-11T05:50:31.212Z,3.50
2018-12-11T05:53:05.238Z,3.67
2018-12-11T05:55:39.176Z,3.20
2018-12-11T05:58:13.382Z,3.77
2018-12-11T06:00:48.530Z,3.27
2018-12-11T06:03:22.585Z,3.73
2018-12-11T06:05:57.593Z,2.90
2018-12-11T06:08:31.752Z,3.63
2018-12-11T06:11:05.871Z,3.43
2018-12-11T06:13:39.796Z,4.43
2018-12-11T06:16:14.090Z,3.17
2018-12-11T06:18:48.230Z,3.93
2018-12-11T06:21:22.230Z,2.77
2018-12-11T06:23:56.132Z,3.20
2018-12-11T06:26:30.155Z,3.80
2018-12-11T06:29:04.618Z,3.87
2018-12-11T06:31:38.747Z,4.07
2018-12-11T06:34:12.872Z,3.67
2018-12-11T06:36:46.954Z,3.07
2018-12-11T06:39:21.251Z,3.00
2018-12-11T06:41:55.189Z,3.30
2018-12-11T06:44:29.316Z,4.60
2018-12-11T06:47:03.703Z,3.20
2018-12-11T06:49:37.961Z,3.37
2018-12-11T06:52:12.163Z,3.80
2018-12-11T06:54:46.561Z,3.10
2018-12-11T06:57:20.624Z,3.70
2018-12-11T06:59:54.738Z,4.00
2018-12-11T07:02:28.934Z,3.33
2018-12-11T07:05:03.195Z,3.47
2018-12-11T07:07:37.410Z,3.47
2018-12-11T07:10:11.569Z,5.20
2018-12-11T07:12:46.268Z,3.70
2018-12-11T07:15:20.460Z,3.30
2018-12-11T07:17:54.721Z,5.03
2018-12-11T07:20:29.901Z,4.97
2018-12-11T07:23:04.265Z,4.07
2018-12-11T07:25:38.537Z,4.73
2018-12-11T07:28:12.768Z,4.17
2018-12-11T07:30:47.722Z,5.70
2018-12-11T07:33:21.840Z,3.20
2018-12-11T07:35:57.206Z,3.63
2018-12-11T07:38:32.198Z,3.83
2018-12-11T07:41:06.413Z,2.90
2018-12-11T07:43:40.754Z,3.00
2018-12-11T07:46:16.844Z,4.20
2018-12-11T07:48:55.661Z,3.77
2018-12-11T07:51:31.957Z,3.97
2018-12-11T07:54:06.182Z,3.73
2018-12-11T07:56:40.378Z,4.07
2018-12-11T07:59:14.774Z,3.90
2018-12-11T08:01:49.047Z,4.90
2018-12-11T08:04:24.030Z,5.27
2018-12-11T08:06:59.854Z,5.37
2018-12-11T08:09:34.131Z,3.40
2018-12-11T08:12:12.280Z,4.87
2018-12-11T08:14:46.538Z,4.17
2018-12-11T08:17:20.833Z,5.03
2018-12-11T08:19:55.260Z,4.90
2018-12-11T08:22:31.686Z,4.43
2018-12-11T08:25:05.865Z,4.30
2018-12-11T08:27:40.044Z,3.80
2018-12-11T08:30:14.733Z,3.77
2018-12-11T08:32:51.019Z,4.40
2018-12-11T08:35:25.481Z,4.03
2018-12-11T08:37:59.788Z,3.20
2018-12-11T08:43:26.917Z,5.60
2018-12-11T08:48:42.342Z,4.87
2018-12-11T08:51:17.458Z,3.77
2018-12-11T08:53:53.305Z,4.60
2018-12-11T08:56:27.625Z,3.90
2018-12-11T08:59:06.687Z,5.03
2018-12-11T09:01:42.628Z,3.60
2018-12-11T09:04:17.516Z,5.10
2018-12-11T09:06:51.858Z,4.03
2018-12-11T09:12:14.675Z,4.27
2018-12-11T09:14:49.560Z,4.20
2018-12-11T09:17:24.027Z,4.00
2018-12-11T09:19:58.302Z,4.47
2018-12-11T09:22:33.168Z,4.23
2018-12-11T09:25:08.008Z,4.00
2018-12-11T09:27:42.986Z,3.93
2018-12-11T09:30:18.060Z,3.53
2018-12-11T09:32:52.643Z,3.93
2018-12-11T09:35:29.290Z,3.97
2018-12-11T09:38:08.269Z,4.10
2018-12-11T09:40:44.120Z,3.47
2018-12-11T09:43:19.023Z,5.80
2018-12-11T09:45:53.633Z,3.93
2018-12-11T09:48:29.922Z,6.63
2018-12-11T09:51:04.226Z,2.93
2018-12-11T09:56:26.365Z,3.67
2018-12-11T09:59:01.709Z,4.67
2018-12-11T10:01:41.509Z,3.53
2018-12-11T10:04:15.725Z,3.97
2018-12-11T10:09:32.060Z,3.97
2018-12-11T10:12:08.693Z,4.53
2018-12-11T10:14:46.082Z,5.17
2018-12-11T10:20:08.339Z,3.33
2018-12-11T10:22:42.989Z,4.20
2018-12-11T10:25:22.835Z,4.20
2018-12-11T10:33:37.872Z,4.47
2018-12-11T10:36:18.662Z,3.70
2018-12-11T10:38:53.489Z,6.50
2018-12-11T10:41:27.725Z,3.93
2018-12-11T10:44:02.095Z,4.27
2018-12-11T10:46:37.345Z,4.17
2018-12-11T10:49:12.174Z,4.03
2018-12-11T10:51:46.678Z,3.90
2018-12-11T10:54:21.000Z,3.40
2018-12-11T10:56:55.472Z,4.13
2018-12-11T13:04:24.065Z,7.57
2018-12-11T13:07:00.074Z,8.97
2018-12-11T13:09:34.435Z,7.60
2018-12-11T13:12:09.941Z,6.50
2018-12-11T13:14:44.555Z,5.80
2018-12-11T14:06:33.052Z,9.87
2018-12-11T14:09:12.791Z,5.90
2018-12-11T14:14:34.811Z,5.63
2018-12-11T14:17:09.122Z,6.87
2018-12-11T16:57:29.180Z,6.93
2018-12-11T17:00:03.352Z,7.50
2018-12-11T17:02:37.286Z,6.57
2018-12-11T17:05:11.127Z,6.37
2018-12-11T17:07:45.099Z,7.40
2018-12-11T17:10:18.918Z,7.40
2018-12-11T17:12:52.847Z,6.53
2018-12-11T17:15:27.315Z,6.17
2018-12-11T17:18:01.224Z,5.83
2018-12-11T17:20:40.056Z,6.40
2018-12-11T17:23:14.021Z,6.60
2018-12-11T17:25:48.102Z,7.00
2018-12-11T17:28:21.992Z,6.47
2018-12-11T17:30:56.024Z,5.97
2018-12-11T17:33:30.103Z,5.97
2018-12-11T17:36:04.087Z,5.73
2018-12-11T17:38:38.026Z,7.20
2018-12-11T17:41:12.049Z,6.40
2018-12-11T17:43:46.054Z,6.20
2018-12-11T17:46:20.059Z,5.50
2018-12-11T17:48:53.876Z,5.50
2018-12-11T17:51:27.924Z,6.77
2018-12-11T17:54:03.934Z,6.67
2018-12-11T17:56:46.655Z,6.40
2018-12-11T17:59:20.855Z,5.80
2018-12-11T18:01:59.070Z,5.17
2018-12-11T18:04:33.397Z,5.97
2018-12-11T18:07:07.614Z,6.47
2018-12-11T18:09:42.064Z,6.33
2018-12-11T18:12:16.305Z,5.57
2018-12-11T18:14:50.512Z,7.00
2018-12-11T18:17:24.659Z,6.37
2018-12-11T18:19:59.823Z,5.60
2018-12-11T18:22:34.289Z,7.00
2018-12-11T18:25:08.333Z,7.67
2018-12-11T18:27:42.905Z,6.30
2018-12-11T18:30:16.896Z,7.00
2018-12-11T18:32:51.866Z,5.83
2018-12-11T18:35:26.287Z,7.77
2018-12-11T18:38:00.565Z,7.17
2018-12-11T18:40:34.877Z,8.67
2018-12-11T18:43:09.171Z,6.47
2018-12-11T18:45:43.620Z,7.63
2018-12-11T18:48:17.784Z,8.03
2018-12-11T18:50:52.126Z,6.97
2018-12-11T18:53:26.572Z,9.43
2018-12-11T18:56:00.570Z,6.43
2018-12-11T18:58:34.874Z,6.77
2018-12-11T19:01:13.027Z,6.53
2018-12-11T19:03:49.430Z,6.90
2018-12-11T19:06:23.217Z,5.87
2018-12-11T19:08:57.239Z,7.20
2018-12-11T19:11:31.267Z,6.40
2018-12-11T19:14:05.418Z,6.67
2018-12-11T19:16:39.652Z,6.40
2018-12-11T19:19:13.857Z,6.33
2018-12-11T19:21:48.036Z,6.17
2018-12-11T19:24:27.866Z,6.83
2018-12-11T19:27:01.908Z,9.83
2018-12-11T19:29:36.157Z,6.30
2018-12-11T19:32:10.380Z,6.40
2018-12-11T19:34:44.414Z,5.37
2018-12-11T19:37:18.559Z,6.80
2018-12-11T19:39:52.675Z,7.23
2018-12-11T19:42:26.694Z,6.83
2018-12-11T19:45:00.932Z,7.13
2018-12-11T19:47:35.055Z,7.53
2018-12-11T19:50:09.286Z,7.83
2018-12-11T19:52:43.219Z,8.47
2018-12-11T19:55:17.417Z,7.63
2018-12-11T19:57:51.702Z,7.23
2018-12-11T20:00:25.695Z,7.37
2018-12-11T20:02:59.712Z,6.60
2018-12-11T20:05:33.754Z,6.80
2018-12-11T20:08:08.004Z,6.63
2018-12-11T20:10:42.052Z,7.43
2018-12-11T20:13:16.161Z,6.80
2018-12-11T20:15:50.255Z,7.53
2018-12-11T20:18:24.300Z,8.07
2018-12-11T20:20:58.626Z,7.47
2018-12-11T20:23:32.786Z,7.77
2018-12-11T20:26:06.803Z,6.97
2018-12-11T20:28:40.904Z,6.97
2018-12-11T20:31:14.842Z,6.67
2018-12-11T20:33:49.021Z,6.67
2018-12-11T20:36:23.318Z,7.90
2018-12-11T20:38:57.426Z,6.73
2018-12-11T20:41:31.632Z,6.60
2018-12-11T20:44:05.866Z,7.40
2018-12-11T20:46:40.016Z,6.20
2018-12-11T20:49:14.136Z,7.40
2018-12-11T20:51:48.099Z,7.50
2018-12-11T20:54:22.323Z,6.97
2018-12-11T20:56:56.421Z,5.53
2018-12-11T20:59:30.712Z,4.63
2018-12-11T21:02:05.014Z,4.97
2018-12-11T21:04:38.955Z,5.73
2018-12-11T21:07:12.846Z,5.80
2018-12-11T21:09:47.119Z,5.00
2018-12-11T21:12:21.212Z,5.40
2018-12-11T21:14:55.376Z,6.30
2018-12-11T21:17:29.511Z,5.70
2018-12-11T21:20:03.908Z,6.20
2018-12-11T21:22:38.155Z,5.60
2018-12-11T21:25:12.247Z,5.47
2018-12-11T21:27:46.301Z,5.43
2018-12-11T21:30:20.228Z,5.77
2018-12-11T21:32:54.469Z,5.77
2018-12-11T21:35:28.412Z,5.17
2018-12-11T21:38:02.313Z,5.90
2018-12-11T21:40:36.579Z,5.97
2018-12-11T21:43:10.523Z,4.87
2018-12-11T21:45:44.633Z,5.37
2018-12-11T21:48:18.753Z,5.70
2018-12-11T21:50:52.766Z,5.40
2018-12-11T21:53:27.183Z,6.50
2018-12-11T21:56:01.245Z,6.07
2018-12-11T21:58:35.242Z,6.03
2018-12-11T22:01:09.173Z,5.50
2018-12-11T22:03:43.215Z,5.13
2018-12-11T22:06:17.484Z,5.40
2018-12-11T22:08:51.688Z,5.20
2018-12-11T22:11:25.978Z,5.50
2018-12-11T22:13:59.916Z,4.97
2018-12-11T22:16:34.032Z,6.57
2018-12-11T22:19:08.156Z,7.57
2018-12-11T22:21:42.144Z,6.03
2018-12-11T22:24:16.967Z,5.57
2018-12-11T22:26:50.939Z,6.80
2018-12-11T22:29:24.913Z,5.67
2018-12-11T22:31:59.060Z,5.37
2018-12-11T22:34:33.216Z,6.50
2018-12-11T22:37:07.232Z,5.60
2018-12-11T22:39:41.289Z,6.67
2018-12-11T22:42:15.257Z,7.17
2018-12-11T22:44:49.279Z,6.23
2018-12-11T22:47:23.331Z,7.60
2018-12-11T22:51:00.726Z,6.13
2018-12-11T22:53:34.777Z,6.23
2018-12-11T22:56:08.984Z,6.20
2018-12-11T22:58:43.009Z,5.20
2018-12-11T23:01:17.281Z,5.27
2018-12-11T23:03:51.243Z,6.97
2018-12-11T23:06:25.169Z,6.53
2018-12-11T23:08:59.105Z,6.20
2018-12-11T23:11:32.948Z,6.27
2018-12-11T23:14:06.871Z,7.30
2018-12-11T23:16:41.062Z,6.90
2018-12-11T23:19:14.990Z,6.50
2018-12-11T23:21:48.948Z,6.10
2018-12-11T23:24:23.129Z,6.60
2018-12-11T23:26:57.262Z,6.83
2018-12-11T23:29:31.281Z,7.17
2018-12-11T23:32:05.207Z,7.57
2018-12-11T23:34:39.601Z,7.13
2018-12-11T23:37:13.510Z,5.93
2018-12-11T23:39:47.604Z,6.27
2018-12-11T23:42:21.675Z,7.77
2018-12-11T23:44:55.573Z,6.57
2018-12-11T23:47:29.459Z,6.17
2018-12-11T23:50:03.606Z,7.23
2018-12-11T23:52:37.468Z,6.73
2018-12-11T23:55:11.375Z,5.67
2018-12-11T23:57:45.326Z,6.53
